Time;durP1;ratioP1;P1;durP2;ratioP2;P2;SDS_P1;SDS_P2;PMS_P1;PMS_P2;Temp;Humidity;BMP_temperature;BMP_pressure;BME280_temperature;BME280_humidity;BME280_pressure;Samples;Min_cycle;Max_cycle;Signal;HPM_P1;HPM_P2
2022/02/16 00:00:02;;;;;;;;;;;21.60;33.20;;;;;;484532;246;1068;-39
2022/02/16 00:02:03;;;;;;;;;;;21.50;33.20;;;;;;484102;246;1184;-39
2022/02/16 00:04:05;;;;;;;;;;;21.50;33.20;;;;;;484540;246;1016;-39
2022/02/16 00:06:06;;;;;;;;;;;21.60;33.20;;;;;;484451;242;1283;-39
2022/02/16 00:08:07;;;;;;;;;;;21.60;33.20;;;;;;484213;246;2196;-39
2022/02/16 00:10:08;;;;;;;;;;;21.60;33.20;;;;;;484257;246;1053;-39
2022/02/16 00:12:10;;;;;;;;;;;21.60;33.20;;;;;;484231;246;1315;-39
2022/02/16 00:14:11;;;;;;;;;;;21.60;33.20;;;;;;484417;246;1057;-39
2022/02/16 00:16:13;;;;;;;;;;;21.60;33.20;;;;;;483898;246;1325;-39
2022/02/16 00:18:14;;;;;;;;;;;21.60;33.20;;;;;;484452;246;1250;-39
2022/02/16 00:20:15;;;;;;;;;;;21.50;33.20;;;;;;484027;246;1071;-39
2022/02/16 00:22:17;;;;;;;;;;;21.50;33.20;;;;;;484408;246;1550;-39
2022/02/16 00:24:18;;;;;;;;;;;21.50;33.20;;;;;;484525;246;1026;-39
2022/02/16 00:26:19;;;;;;;;;;;21.50;33.30;;;;;;483972;243;2113;-39
2022/02/16 00:28:21;;;;;;;;;;;21.50;33.30;;;;;;484083;246;1236;-39
2022/02/16 00:30:22;;;;;;;;;;;21.50;33.20;;;;;;484483;246;1106;-39
2022/02/16 00:32:23;;;;;;;;;;;21.50;33.20;;;;;;483868;246;1208;-39
2022/02/16 00:34:25;;;;;;;;;;;21.50;33.20;;;;;;484463;246;1068;-39
2022/02/16 00:36:26;;;;;;;;;;;21.60;33.20;;;;;;484468;246;1158;-39
2022/02/16 00:38:27;;;;;;;;;;;21.50;33.20;;;;;;484480;246;1208;-39
2022/02/16 00:40:29;;;;;;;;;;;21.50;33.20;;;;;;484494;246;1370;-40
2022/02/16 00:42:30;;;;;;;;;;;21.50;33.20;;;;;;484328;246;1196;-39
2022/02/16 00:44:31;;;;;;;;;;;21.60;33.20;;;;;;484476;246;1268;-39
2022/02/16 00:46:33;;;;;;;;;;;21.50;33.20;;;;;;483959;246;2250;-39
2022/02/16 00:48:34;;;;;;;;;;;21.50;33.20;;;;;;484072;246;1320;-39
2022/02/16 00:50:35;;;;;;;;;;;21.50;33.20;;;;;;484455;246;1184;-39
2022/02/16 00:52:37;;;;;;;;;;;21.50;33.30;;;;;;484070;246;1272;-39
2022/02/16 00:54:39;;;;;;;;;;;21.60;33.20;;;;;;484073;246;1113;-39
2022/02/16 00:56:40;;;;;;;;;;;21.50;33.20;;;;;;483949;246;2387;-39
2022/02/16 00:58:42;;;;;;;;;;;21.60;33.20;;;;;;484172;246;1155;-39
2022/02/16 01:00:43;;;;;;;;;;;21.60;33.20;;;;;;484441;246;1484;-39
2022/02/16 01:02:44;;;;;;;;;;;21.50;33.20;;;;;;484253;246;1144;-39
2022/02/16 01:04:46;;;;;;;;;;;21.60;33.20;;;;;;484065;246;1272;-39
2022/02/16 01:06:47;;;;;;;;;;;21.60;33.20;;;;;;484152;246;2192;-39
2022/02/16 01:08:48;;;;;;;;;;;21.60;33.20;;;;;;484334;246;1149;-39
2022/02/16 01:10:50;;;;;;;;;;;21.60;33.20;;;;;;484016;246;1256;-39
2022/02/16 01:12:51;;;;;;;;;;;21.60;33.20;;;;;;484023;246;1221;-39
2022/02/16 01:14:53;;;;;;;;;;;21.60;33.20;;;;;;484238;246;1363;-39
2022/02/16 01:16:54;;;;;;;;;;;21.50;33.20;;;;;;484360;245;2236;-39
2022/02/16 01:18:55;;;;;;;;;;;21.50;33.20;;;;;;484320;246;1220;-39
2022/02/16 01:20:56;;;;;;;;;;;21.50;33.20;;;;;;484399;246;1090;-39
2022/02/16 01:22:59;;;;;;;;;;;21.50;33.10;;;;;;484044;246;1213;-39
2022/02/16 01:24:59;;;;;;;;;;;21.60;33.20;;;;;;484309;245;2353;-39
2022/02/16 01:27:00;;;;;;;;;;;21.60;33.20;;;;;;484230;246;2130;-39
2022/02/16 01:29:01;;;;;;;;;;;21.50;33.10;;;;;;484171;246;1204;-39
2022/02/16 01:31:03;;;;;;;;;;;21.50;33.10;;;;;;484128;243;1273;-39
2022/02/16 01:33:04;;;;;;;;;;;21.50;33.20;;;;;;484515;246;1170;-39
2022/02/16 01:35:05;;;;;;;;;;;21.50;33.20;;;;;;484075;246;1248;-39
2022/02/16 01:37:07;;;;;;;;;;;21.60;33.30;;;;;;484368;246;1129;-39
2022/02/16 01:39:08;;;;;;;;;;;21.50;33.10;;;;;;484383;246;1265;-39
2022/02/16 01:41:09;;;;;;;;;;;21.50;33.10;;;;;;484181;242;1356;-39
2022/02/16 01:43:11;;;;;;;;;;;21.50;33.10;;;;;;484089;246;1258;-39
2022/02/16 01:45:12;;;;;;;;;;;21.60;33.10;;;;;;484540;246;1042;-39
2022/02/16 01:47:13;;;;;;;;;;;21.60;33.10;;;;;;483880;243;2192;-39
2022/02/16 01:49:15;;;;;;;;;;;21.60;33.10;;;;;;484028;246;1030;-39
2022/02/16 01:51:16;;;;;;;;;;;21.50;33.10;;;;;;484381;246;1127;-39
2022/02/16 01:53:17;;;;;;;;;;;21.50;33.20;;;;;;484382;246;1033;-39
2022/02/16 01:55:19;;;;;;;;;;;21.50;33.30;;;;;;484271;246;1047;-39
2022/02/16 01:57:20;;;;;;;;;;;21.50;33.20;;;;;;484043;246;1217;-39
2022/02/16 01:59:21;;;;;;;;;;;21.50;33.20;;;;;;484181;246;1189;-39
2022/02/16 02:01:23;;;;;;;;;;;21.60;33.10;;;;;;483988;246;1147;-39
2022/02/16 02:03:24;;;;;;;;;;;21.60;33.10;;;;;;484461;246;1172;-39
2022/02/16 02:05:25;;;;;;;;;;;21.50;33.10;;;;;;484055;246;1051;-39
2022/02/16 02:07:27;;;;;;;;;;;21.50;33.10;;;;;;484305;246;2192;-39
2022/02/16 02:09:28;;;;;;;;;;;21.50;33.20;;;;;;483992;246;1163;-39
2022/02/16 02:11:29;;;;;;;;;;;21.60;33.10;;;;;;484487;246;1188;-39
2022/02/16 02:13:31;;;;;;;;;;;21.60;33.10;;;;;;484048;246;1180;-39
2022/02/16 02:15:32;;;;;;;;;;;21.60;33.10;;;;;;484514;245;2014;-39
2022/02/16 02:17:33;;;;;;;;;;;21.60;33.10;;;;;;484111;246;1202;-39
2022/02/16 02:19:34;;;;;;;;;;;21.50;33.10;;;;;;484527;246;1056;-39
2022/02/16 02:21:36;;;;;;;;;;;21.50;33.10;;;;;;484412;246;1184;-39
2022/02/16 02:23:37;;;;;;;;;;;21.60;33.10;;;;;;484539;246;1283;-39
2022/02/16 02:25:39;;;;;;;;;;;21.60;33.20;;;;;;484480;246;1100;-39
2022/02/16 02:27:40;;;;;;;;;;;21.50;33.10;;;;;;484200;246;2121;-39
2022/02/16 02:29:42;;;;;;;;;;;21.60;33.10;;;;;;484073;246;1294;-39
2022/02/16 02:31:42;;;;;;;;;;;21.60;33.10;;;;;;484289;246;2300;-39
2022/02/16 02:33:44;;;;;;;;;;;21.50;33.10;;;;;;484016;246;1157;-39
2022/02/16 02:35:45;;;;;;;;;;;21.50;33.10;;;;;;484500;246;1142;-39
2022/02/16 02:37:47;;;;;;;;;;;21.60;33.10;;;;;;484058;246;1157;-39
2022/02/16 02:39:48;;;;;;;;;;;21.60;33.10;;;;;;484472;246;1124;-39
2022/02/16 02:41:49;;;;;;;;;;;21.50;33.00;;;;;;484293;246;1322;-39
2022/02/16 02:43:50;;;;;;;;;;;21.50;33.10;;;;;;484389;246;1260;-39
2022/02/16 02:45:52;;;;;;;;;;;21.60;33.10;;;;;;484030;246;2416;-39
2022/02/16 02:47:53;;;;;;;;;;;21.50;33.10;;;;;;484284;246;2136;-39
2022/02/16 02:49:54;;;;;;;;;;;21.50;33.10;;;;;;484512;246;1060;-39
2022/02/16 02:51:56;;;;;;;;;;;21.50;33.10;;;;;;484217;246;1191;-39
2022/02/16 02:53:57;;;;;;;;;;;21.50;33.10;;;;;;484538;246;1118;-39
2022/02/16 02:55:58;;;;;;;;;;;21.50;33.10;;;;;;484518;246;1362;-39
2022/02/16 02:58:00;;;;;;;;;;;21.50;33.10;;;;;;484506;246;1148;-39
2022/02/16 03:00:01;;;;;;;;;;;21.50;33.10;;;;;;484210;246;1248;-39
2022/02/16 03:02:02;;;;;;;;;;;21.50;33.10;;;;;;484044;246;1151;-39
2022/02/16 03:04:04;;;;;;;;;;;21.50;33.10;;;;;;484057;246;1078;-39
2022/02/16 03:06:07;;;;;;;;;;;21.50;33.10;;;;;;484417;243;1153;-39
2022/02/16 03:08:07;;;;;;;;;;;21.60;33.10;;;;;;483982;246;2121;-39
2022/02/16 03:10:08;;;;;;;;;;;21.50;33.00;;;;;;484023;246;1189;-39
2022/02/16 03:12:09;;;;;;;;;;;21.60;33.10;;;;;;484374;246;1319;-39
2022/02/16 03:14:11;;;;;;;;;;;21.50;33.10;;;;;;484390;246;1104;-39
2022/02/16 03:16:12;;;;;;;;;;;21.50;33.10;;;;;;484278;246;1196;-39
2022/02/16 03:18:13;;;;;;;;;;;21.50;33.10;;;;;;483990;246;1147;-39
2022/02/16 03:20:15;;;;;;;;;;;21.50;33.10;;;;;;484493;246;1050;-39
2022/02/16 03:22:16;;;;;;;;;;;21.50;33.10;;;;;;484153;246;1486;-39
2022/02/16 03:24:18;;;;;;;;;;;21.50;33.10;;;;;;484452;246;1072;-39
2022/02/16 03:26:19;;;;;;;;;;;21.50;33.10;;;;;;484120;242;1428;-39
2022/02/16 03:28:20;;;;;;;;;;;21.50;33.10;;;;;;484038;246;2129;-39
2022/02/16 03:30:22;;;;;;;;;;;21.40;33.10;;;;;;484207;246;1177;-39
2022/02/16 03:32:23;;;;;;;;;;;21.50;33.20;;;;;;483964;246;1218;-39
2022/02/16 03:34:24;;;;;;;;;;;21.50;33.20;;;;;;484374;246;1045;-39
2022/02/16 03:36:26;;;;;;;;;;;21.50;33.20;;;;;;484499;246;1386;-39
2022/02/16 03:38:27;;;;;;;;;;;21.50;33.10;;;;;;484396;246;1224;-39
2022/02/16 03:40:30;;;;;;;;;;;21.50;33.20;;;;;;484033;246;1343;-39
2022/02/16 03:42:30;;;;;;;;;;;21.50;33.10;;;;;;483961;246;2236;-39
2022/02/16 03:44:32;;;;;;;;;;;21.50;33.10;;;;;;484440;246;1210;-39
2022/02/16 03:46:33;;;;;;;;;;;21.50;33.10;;;;;;483949;246;1193;-39
2022/02/16 03:48:34;;;;;;;;;;;21.50;33.10;;;;;;484281;246;2188;-39
2022/02/16 03:50:35;;;;;;;;;;;21.40;33.10;;;;;;484519;246;1043;-39
2022/02/16 03:52:37;;;;;;;;;;;21.50;33.10;;;;;;484277;246;1185;-39
2022/02/16 03:54:38;;;;;;;;;;;21.50;33.10;;;;;;484546;246;1019;-39
2022/02/16 03:56:39;;;;;;;;;;;21.50;33.10;;;;;;484407;246;1116;-39
2022/02/16 03:58:41;;;;;;;;;;;21.50;33.10;;;;;;484481;246;1041;-39
2022/02/16 04:00:42;;;;;;;;;;;21.50;33.10;;;;;;484204;246;1181;-39
2022/02/16 04:02:43;;;;;;;;;;;21.50;33.10;;;;;;484428;246;1250;-39
2022/02/16 04:04:45;;;;;;;;;;;21.50;33.20;;;;;;484500;246;1073;-39
2022/02/16 04:06:46;;;;;;;;;;;21.40;33.20;;;;;;484013;246;1238;-39
2022/02/16 04:08:47;;;;;;;;;;;21.40;33.20;;;;;;484458;246;2116;-39
2022/02/16 04:10:49;;;;;;;;;;;21.40;33.20;;;;;;484030;246;1133;-39
2022/02/16 04:12:50;;;;;;;;;;;21.40;33.20;;;;;;483992;246;1628;-39
2022/02/16 04:14:51;;;;;;;;;;;21.40;33.20;;;;;;484419;246;1271;-39
2022/02/16 04:16:53;;;;;;;;;;;21.40;33.10;;;;;;483915;242;1505;-39
2022/02/16 04:18:54;;;;;;;;;;;21.50;33.10;;;;;;484496;246;991;-39
2022/02/16 04:20:55;;;;;;;;;;;21.50;33.10;;;;;;484330;246;1370;-39
2022/02/16 04:22:57;;;;;;;;;;;21.50;33.10;;;;;;484472;246;1198;-39
2022/02/16 04:24:58;;;;;;;;;;;21.50;33.00;;;;;;484509;246;1083;-39
2022/02/16 04:26:59;;;;;;;;;;;21.50;33.00;;;;;;484018;246;1209;-39
2022/02/16 04:29:00;;;;;;;;;;;21.50;33.00;;;;;;484463;246;2129;-39
2022/02/16 04:31:02;;;;;;;;;;;21.40;33.10;;;;;;483937;246;1397;-39
2022/02/16 04:33:03;;;;;;;;;;;21.40;33.10;;;;;;483957;246;1145;-39
2022/02/16 04:35:04;;;;;;;;;;;21.50;33.10;;;;;;484461;246;1072;-39
2022/02/16 04:37:06;;;;;;;;;;;21.50;33.00;;;;;;483921;246;1485;-39
2022/02/16 04:39:07;;;;;;;;;;;21.50;33.10;;;;;;484106;246;1165;-39
2022/02/16 04:41:08;;;;;;;;;;;21.50;33.10;;;;;;483951;243;1669;-39
2022/02/16 04:43:10;;;;;;;;;;;21.50;33.10;;;;;;484010;246;1075;-39
2022/02/16 04:45:11;;;;;;;;;;;21.40;33.10;;;;;;484037;246;1113;-39
2022/02/16 04:47:13;;;;;;;;;;;21.50;33.10;;;;;;484127;246;1504;-39
2022/02/16 04:49:14;;;;;;;;;;;21.50;33.10;;;;;;484487;246;2117;-39
2022/02/16 04:51:15;;;;;;;;;;;21.50;33.10;;;;;;484249;246;1230;-39
2022/02/16 04:53:17;;;;;;;;;;;21.50;33.00;;;;;;483972;246;1107;-39
2022/02/16 04:55:18;;;;;;;;;;;21.50;33.10;;;;;;484456;246;1120;-39
2022/02/16 04:57:19;;;;;;;;;;;21.50;33.00;;;;;;484410;246;1174;-39
2022/02/16 04:59:21;;;;;;;;;;;21.50;33.00;;;;;;484486;246;1092;-39
2022/02/16 05:01:22;;;;;;;;;;;21.50;33.00;;;;;;484107;246;1231;-39
2022/02/16 05:03:23;;;;;;;;;;;21.50;33.10;;;;;;484454;246;1053;-39
2022/02/16 05:05:24;;;;;;;;;;;21.40;33.10;;;;;;484330;246;1027;-39
2022/02/16 05:07:26;;;;;;;;;;;21.50;33.00;;;;;;483980;246;1265;-39
2022/02/16 05:09:27;;;;;;;;;;;21.50;33.10;;;;;;484042;246;2129;-39
2022/02/16 05:11:29;;;;;;;;;;;21.50;33.00;;;;;;484222;246;1186;-39
2022/02/16 05:13:30;;;;;;;;;;;21.50;33.10;;;;;;484333;246;1288;-39
2022/02/16 05:15:31;;;;;;;;;;;21.50;33.10;;;;;;484341;246;1285;-39
2022/02/16 05:17:32;;;;;;;;;;;21.50;33.10;;;;;;484023;246;1230;-39
2022/02/16 05:19:34;;;;;;;;;;;21.50;33.10;;;;;;483934;246;1209;-39
2022/02/16 05:21:35;;;;;;;;;;;21.50;33.00;;;;;;484115;246;1450;-39
2022/02/16 05:23:36;;;;;;;;;;;21.50;33.00;;;;;;484436;246;1008;-39
2022/02/16 05:25:38;;;;;;;;;;;21.50;33.00;;;;;;484429;246;1317;-39
2022/02/16 05:27:39;;;;;;;;;;;21.50;33.00;;;;;;484035;246;1227;-39
2022/02/16 05:29:40;;;;;;;;;;;21.60;33.00;;;;;;484362;246;2203;-39
2022/02/16 05:31:42;;;;;;;;;;;21.50;33.00;;;;;;483925;246;1337;-39
2022/02/16 05:33:43;;;;;;;;;;;21.40;33.00;;;;;;484215;246;1188;-39
2022/02/16 05:35:45;;;;;;;;;;;21.50;33.10;;;;;;484347;246;1239;-39
2022/02/16 05:37:46;;;;;;;;;;;21.50;33.10;;;;;;484324;246;1114;-39
2022/02/16 05:39:48;;;;;;;;;;;21.50;33.00;;;;;;484383;246;1319;-39
2022/02/16 05:41:49;;;;;;;;;;;21.50;33.00;;;;;;483809;246;1171;-39
2022/02/16 05:43:50;;;;;;;;;;;21.50;33.00;;;;;;484269;246;1043;-39
2022/02/16 05:45:52;;;;;;;;;;;21.50;33.10;;;;;;483927;246;1491;-39
2022/02/16 05:47:53;;;;;;;;;;;21.50;33.00;;;;;;484220;246;1252;-39
2022/02/16 05:49:54;;;;;;;;;;;21.50;33.00;;;;;;483878;246;2192;-39
2022/02/16 05:51:56;;;;;;;;;;;21.50;33.00;;;;;;484076;246;1230;-39
2022/02/16 05:53:57;;;;;;;;;;;21.50;33.00;;;;;;484329;246;1046;-39
2022/02/16 05:55:58;;;;;;;;;;;21.50;33.00;;;;;;483830;243;1160;-39
2022/02/16 05:58:00;;;;;;;;;;;21.50;33.00;;;;;;483866;246;1163;-39
2022/02/16 06:00:01;;;;;;;;;;;21.50;32.90;;;;;;483892;246;1070;-39
2022/02/16 06:02:04;;;;;;;;;;;21.50;33.00;;;;;;483716;246;1213;-39
2022/02/16 06:04:04;;;;;;;;;;;21.50;33.00;;;;;;483675;246;2346;-39
2022/02/16 06:06:05;;;;;;;;;;;21.50;33.00;;;;;;483803;246;1540;-39
2022/02/16 06:08:06;;;;;;;;;;;21.50;33.00;;;;;;483615;246;1299;-39
2022/02/16 06:10:07;;;;;;;;;;;21.50;33.00;;;;;;483894;246;2194;-39
2022/02/16 06:12:09;;;;;;;;;;;21.50;32.90;;;;;;483681;246;1256;-39
2022/02/16 06:14:10;;;;;;;;;;;21.50;32.90;;;;;;483625;246;1213;-39
2022/02/16 06:16:11;;;;;;;;;;;21.50;32.90;;;;;;483692;246;1536;-39
2022/02/16 06:18:13;;;;;;;;;;;21.40;33.00;;;;;;483924;246;1461;-39
2022/02/16 06:20:14;;;;;;;;;;;21.50;33.00;;;;;;483764;246;1383;-39
2022/02/16 06:22:15;;;;;;;;;;;21.50;33.00;;;;;;484173;246;1317;-39
2022/02/16 06:24:19;;;;;;;;;;;21.50;33.00;;;;;;484035;246;1456;-39
2022/02/16 06:26:18;;;;;;;;;;;21.60;33.00;;;;;;483520;246;2305;-39
2022/02/16 06:28:19;;;;;;;;;;;21.60;32.90;;;;;;483995;246;1592;-39
2022/02/16 06:30:21;;;;;;;;;;;21.50;32.90;;;;;;483644;246;2196;-39
2022/02/16 06:32:22;;;;;;;;;;;21.50;33.00;;;;;;483600;246;1570;-39
2022/02/16 06:34:24;;;;;;;;;;;21.50;33.00;;;;;;483612;246;1263;-39
2022/02/16 06:36:25;;;;;;;;;;;21.50;33.00;;;;;;483693;246;1177;-39
2022/02/16 06:38:26;;;;;;;;;;;21.50;33.00;;;;;;483804;246;1101;-39
2022/02/16 06:40:28;;;;;;;;;;;21.50;33.00;;;;;;483966;246;1224;-39
2022/02/16 06:42:29;;;;;;;;;;;21.50;33.00;;;;;;483521;246;2173;-39
2022/02/16 06:44:30;;;;;;;;;;;21.50;33.00;;;;;;483644;246;1231;-39
2022/02/16 06:46:32;;;;;;;;;;;21.50;33.00;;;;;;483672;246;1268;-39
2022/02/16 06:48:33;;;;;;;;;;;21.50;33.00;;;;;;483764;246;2225;-39
2022/02/16 06:50:34;;;;;;;;;;;21.50;33.00;;;;;;483802;246;1266;-40
2022/02/16 06:52:36;;;;;;;;;;;21.50;33.00;;;;;;483898;246;1356;-39
2022/02/16 06:54:37;;;;;;;;;;;21.50;33.00;;;;;;483771;246;1176;-39
2022/02/16 06:56:38;;;;;;;;;;;21.50;32.90;;;;;;483873;246;1653;-39
2022/02/16 06:58:39;;;;;;;;;;;21.50;32.90;;;;;;483627;246;1513;-39
2022/02/16 07:00:41;;;;;;;;;;;21.50;32.90;;;;;;484062;246;1259;-39
2022/02/16 07:02:42;;;;;;;;;;;21.50;32.90;;;;;;483815;246;1226;-39
2022/02/16 07:04:44;;;;;;;;;;;21.50;32.90;;;;;;483749;246;1051;-39
2022/02/16 07:06:45;;;;;;;;;;;21.50;32.80;;;;;;483541;246;1246;-39
2022/02/16 07:08:47;;;;;;;;;;;21.50;32.90;;;;;;483778;246;2129;-39
2022/02/16 07:10:48;;;;;;;;;;;21.60;32.90;;;;;;483462;246;1513;-39
2022/02/16 07:12:50;;;;;;;;;;;21.50;32.90;;;;;;483756;246;1274;-40
2022/02/16 07:14:56;;;;;;;;;;;21.60;32.90;;;;;;483603;246;1427;-40
2022/02/16 07:16:53;;;;;;;;;;;21.60;32.90;;;;;;482989;246;2236;-40
2022/02/16 07:18:54;;;;;;;;;;;21.50;32.80;;;;;;483057;246;2458;-40
2022/02/16 07:20:55;;;;;;;;;;;21.50;32.80;;;;;;483367;246;1218;-40
2022/02/16 07:22:57;;;;;;;;;;;21.50;32.80;;;;;;483569;246;1060;-40
2022/02/16 07:24:58;;;;;;;;;;;21.50;32.80;;;;;;483397;246;2141;-40
2022/02/16 07:26:59;;;;;;;;;;;21.50;32.80;;;;;;483929;246;1218;-40
2022/02/16 07:29:00;;;;;;;;;;;21.50;32.90;;;;;;483301;246;2196;-40
2022/02/16 07:31:01;;;;;;;;;;;21.50;32.80;;;;;;483576;246;1192;-40
2022/02/16 07:33:03;;;;;;;;;;;21.50;32.80;;;;;;483459;246;1143;-40
2022/02/16 07:35:04;;;;;;;;;;;21.50;32.80;;;;;;483388;246;1268;-40
2022/02/16 07:37:06;;;;;;;;;;;21.50;32.80;;;;;;483242;246;1330;-40
2022/02/16 07:39:07;;;;;;;;;;;21.50;32.70;;;;;;483321;246;1327;-40
2022/02/16 07:41:08;;;;;;;;;;;21.50;32.70;;;;;;483496;246;1550;-40
2022/02/16 07:43:10;;;;;;;;;;;21.40;32.80;;;;;;483346;246;1096;-40
2022/02/16 07:45:11;;;;;;;;;;;21.50;32.80;;;;;;483460;246;1103;-40
2022/02/16 07:47:12;;;;;;;;;;;21.50;32.80;;;;;;483199;246;1301;-40
2022/02/16 07:49:14;;;;;;;;;;;21.50;32.70;;;;;;483356;246;2121;-40
2022/02/16 07:51:15;;;;;;;;;;;21.60;32.70;;;;;;483240;246;1452;-40
2022/02/16 07:53:17;;;;;;;;;;;21.60;32.60;;;;;;483382;246;1123;-40
2022/02/16 07:55:19;;;;;;;;;;;21.50;32.60;;;;;;483415;246;1177;-40
2022/02/16 07:57:19;;;;;;;;;;;21.50;32.60;;;;;;483311;246;1572;-40
2022/02/16 07:59:21;;;;;;;;;;;21.50;32.60;;;;;;483309;246;1336;-40
2022/02/16 08:01:22;;;;;;;;;;;21.50;32.60;;;;;;483311;246;1343;-40
2022/02/16 08:03:23;;;;;;;;;;;21.60;32.60;;;;;;483568;246;1251;-40
2022/02/16 08:05:25;;;;;;;;;;;21.50;32.60;;;;;;483432;246;1372;-40
2022/02/16 08:07:26;;;;;;;;;;;21.60;32.60;;;;;;483320;246;1249;-40
2022/02/16 08:09:27;;;;;;;;;;;21.60;32.60;;;;;;483322;246;2133;-40
2022/02/16 08:11:28;;;;;;;;;;;21.50;32.50;;;;;;483274;246;1295;-40
2022/02/16 08:13:30;;;;;;;;;;;21.60;32.60;;;;;;483333;246;1346;-40
2022/02/16 08:15:32;;;;;;;;;;;21.60;32.60;;;;;;483352;246;1327;-40
2022/02/16 08:17:33;;;;;;;;;;;21.60;32.50;;;;;;483381;246;1241;-40
2022/02/16 08:19:35;;;;;;;;;;;21.60;32.50;;;;;;483296;246;1243;-40
2022/02/16 08:21:36;;;;;;;;;;;21.60;32.50;;;;;;483148;246;1285;-40
2022/02/16 08:23:37;;;;;;;;;;;21.60;32.50;;;;;;483217;246;1221;-40
2022/02/16 08:25:38;;;;;;;;;;;21.50;32.50;;;;;;483268;246;1223;-40
2022/02/16 08:27:41;;;;;;;;;;;21.50;32.40;;;;;;483114;246;1196;-40
2022/02/16 08:29:42;;;;;;;;;;;21.50;32.50;;;;;;482236;247;2184;-40
2022/02/16 08:31:45;;;;;;;;;;;21.50;32.50;;;;;;482878;246;1248;-40
2022/02/16 08:33:44;;;;;;;;;;;21.50;32.40;;;;;;483220;246;2218;-40
2022/02/16 08:35:46;;;;;;;;;;;21.50;32.40;;;;;;483289;246;1232;-40
2022/02/16 08:37:48;;;;;;;;;;;21.60;32.40;;;;;;483976;246;1062;-40
2022/02/16 08:39:48;;;;;;;;;;;21.60;32.40;;;;;;483395;246;2184;-40
2022/02/16 08:41:50;;;;;;;;;;;21.60;32.40;;;;;;483411;246;1163;-40
2022/02/16 08:43:51;;;;;;;;;;;21.60;32.40;;;;;;483055;246;1154;-40
2022/02/16 08:45:53;;;;;;;;;;;21.60;32.30;;;;;;482205;247;1417;-40
2022/02/16 08:47:54;;;;;;;;;;;21.60;32.30;;;;;;483599;246;1040;-40
2022/02/16 08:49:55;;;;;;;;;;;21.60;32.30;;;;;;483058;246;2188;-40
2022/02/16 08:51:57;;;;;;;;;;;21.60;32.30;;;;;;483358;246;1256;-40
2022/02/16 08:53:59;;;;;;;;;;;21.60;32.30;;;;;;483220;246;1164;-40
2022/02/16 08:56:00;;;;;;;;;;;21.60;32.30;;;;;;483130;246;1348;-40
2022/02/16 08:58:01;;;;;;;;;;;21.60;32.30;;;;;;483605;246;1158;-40
2022/02/16 09:00:03;;;;;;;;;;;21.60;32.30;;;;;;483433;246;1103;-40
2022/02/16 09:02:04;;;;;;;;;;;21.60;32.20;;;;;;483453;246;1381;-40
2022/02/16 09:04:06;;;;;;;;;;;21.60;32.20;;;;;;483248;246;1483;-40
2022/02/16 09:06:07;;;;;;;;;;;21.60;32.20;;;;;;483245;246;1241;-40
2022/02/16 09:08:08;;;;;;;;;;;21.60;32.30;;;;;;483143;246;1203;-40
2022/02/16 09:10:10;;;;;;;;;;;21.60;32.20;;;;;;483133;246;2188;-40
2022/02/16 09:12:11;;;;;;;;;;;21.60;32.20;;;;;;483266;246;1378;-40
2022/02/16 09:14:12;;;;;;;;;;;21.60;32.20;;;;;;483417;246;1067;-40
2022/02/16 09:16:14;;;;;;;;;;;21.60;32.20;;;;;;483326;246;1198;-40
2022/02/16 09:18:17;;;;;;;;;;;21.60;32.20;;;;;;483483;246;1035;-40
2022/02/16 09:20:16;;;;;;;;;;;21.60;32.20;;;;;;483171;246;2117;-40
2022/02/16 09:22:18;;;;;;;;;;;21.60;32.20;;;;;;482962;246;1354;-40
2022/02/16 09:24:19;;;;;;;;;;;21.60;32.10;;;;;;483306;246;1055;-40
2022/02/16 09:26:20;;;;;;;;;;;21.60;32.20;;;;;;483232;246;1281;-40
2022/02/16 09:28:22;;;;;;;;;;;21.60;32.10;;;;;;483304;246;1202;-40
2022/02/16 09:30:23;;;;;;;;;;;21.60;32.10;;;;;;483355;246;2128;-39
2022/02/16 09:32:24;;;;;;;;;;;21.60;32.20;;;;;;483169;246;1331;-40
2022/02/16 09:34:26;;;;;;;;;;;21.60;32.20;;;;;;483331;246;1356;-40
2022/02/16 09:36:30;;;;;;;;;;;21.60;32.20;;;;;;483567;246;1306;-40
2022/02/16 09:38:29;;;;;;;;;;;21.50;32.10;;;;;;483096;246;1296;-40
2022/02/16 09:40:30;;;;;;;;;;;21.50;32.10;;;;;;483446;246;1307;-40
2022/02/16 09:42:32;;;;;;;;;;;21.50;32.10;;;;;;483086;246;2382;-40
2022/02/16 09:44:33;;;;;;;;;;;21.60;32.10;;;;;;483224;246;1228;-39
2022/02/16 09:46:34;;;;;;;;;;;21.60;32.10;;;;;;483061;246;1232;-40
2022/02/16 09:48:36;;;;;;;;;;;21.50;32.00;;;;;;483231;246;1138;-40
2022/02/16 09:50:37;;;;;;;;;;;21.60;32.10;;;;;;483216;246;2200;-40
2022/02/16 09:52:39;;;;;;;;;;;21.60;32.00;;;;;;483234;246;1567;-40
2022/02/16 09:54:40;;;;;;;;;;;21.60;31.90;;;;;;483158;246;1277;-40
2022/02/16 09:56:41;;;;;;;;;;;21.60;31.90;;;;;;483182;246;1343;-40
2022/02/16 09:58:43;;;;;;;;;;;21.60;32.00;;;;;;483335;246;1243;-40
2022/02/16 10:00:44;;;;;;;;;;;21.60;32.00;;;;;;483351;246;1235;-40
2022/02/16 10:02:45;;;;;;;;;;;21.50;31.90;;;;;;483403;246;1371;-40
2022/02/16 10:04:47;;;;;;;;;;;21.60;32.10;;;;;;483282;246;1209;-40
2022/02/16 10:06:49;;;;;;;;;;;21.60;32.00;;;;;;483319;246;1327;-40
2022/02/16 10:08:50;;;;;;;;;;;21.60;31.90;;;;;;483327;246;1381;-39
2022/02/16 10:10:51;;;;;;;;;;;21.60;31.80;;;;;;483428;246;2136;-40
2022/02/16 10:12:53;;;;;;;;;;;21.70;31.80;;;;;;483311;246;1222;-40
2022/02/16 10:14:54;;;;;;;;;;;21.70;31.80;;;;;;483335;246;1203;-40
2022/02/16 10:16:56;;;;;;;;;;;21.70;31.80;;;;;;483782;246;1231;-40
2022/02/16 10:18:57;;;;;;;;;;;21.60;31.90;;;;;;483243;246;1090;-40
2022/02/16 10:20:58;;;;;;;;;;;21.60;31.80;;;;;;483274;246;1468;-40
2022/02/16 10:23:00;;;;;;;;;;;21.70;31.80;;;;;;483358;246;1228;-40
2022/02/16 10:25:01;;;;;;;;;;;21.60;31.80;;;;;;483199;246;1122;-40
2022/02/16 10:27:02;;;;;;;;;;;21.60;31.80;;;;;;483289;246;1291;-40
2022/02/16 10:29:04;;;;;;;;;;;21.60;31.80;;;;;;483227;246;1224;-40
2022/02/16 10:31:05;;;;;;;;;;;21.60;31.80;;;;;;483212;246;2137;-40
2022/02/16 10:33:06;;;;;;;;;;;21.60;31.90;;;;;;483216;246;1202;-40
2022/02/16 10:35:07;;;;;;;;;;;21.60;31.80;;;;;;483113;246;1268;-40
2022/02/16 10:37:09;;;;;;;;;;;21.60;31.80;;;;;;483159;246;1361;-40
2022/02/16 10:39:11;;;;;;;;;;;21.60;31.90;;;;;;483200;246;1295;-40
2022/02/16 10:41:12;;;;;;;;;;;21.60;31.80;;;;;;483221;243;1370;-40
2022/02/16 10:43:13;;;;;;;;;;;21.60;31.80;;;;;;483107;246;1240;-40
2022/02/16 10:45:15;;;;;;;;;;;21.60;31.70;;;;;;483164;246;1107;-40
2022/02/16 10:47:17;;;;;;;;;;;21.60;31.80;;;;;;483141;246;1635;-40
2022/02/16 10:49:18;;;;;;;;;;;21.60;31.80;;;;;;483479;246;2052;-40
2022/02/16 10:51:19;;;;;;;;;;;21.60;31.80;;;;;;483286;246;2168;-40
2022/02/16 10:53:20;;;;;;;;;;;21.60;31.70;;;;;;483365;246;1075;-40
2022/02/16 10:55:22;;;;;;;;;;;21.60;31.80;;;;;;483416;246;1229;-40
2022/02/16 10:57:23;;;;;;;;;;;21.60;31.70;;;;;;483321;246;1235;-40
2022/02/16 10:59:24;;;;;;;;;;;21.60;31.70;;;;;;483290;246;1109;-40
2022/02/16 11:01:26;;;;;;;;;;;21.60;31.70;;;;;;483266;246;1321;-40
2022/02/16 11:03:27;;;;;;;;;;;21.60;31.80;;;;;;483190;246;1142;-40
2022/02/16 11:05:28;;;;;;;;;;;21.60;31.70;;;;;;483177;246;1299;-40
2022/02/16 11:07:30;;;;;;;;;;;21.60;31.70;;;;;;483672;246;1238;-40
2022/02/16 11:09:31;;;;;;;;;;;21.60;31.70;;;;;;483320;246;1384;-40
2022/02/16 11:11:32;;;;;;;;;;;21.60;31.70;;;;;;483167;246;2145;-40
2022/02/16 11:13:34;;;;;;;;;;;21.60;31.70;;;;;;483211;246;1265;-40
2022/02/16 11:15:35;;;;;;;;;;;21.60;31.70;;;;;;483224;246;1515;-40
2022/02/16 11:17:36;;;;;;;;;;;21.60;31.70;;;;;;483247;246;1275;-40
2022/02/16 11:19:38;;;;;;;;;;;21.70;31.80;;;;;;483264;246;1146;-40
2022/02/16 11:21:45;;;;;;;;;;;21.60;31.70;;;;;;483122;246;1273;-40
2022/02/16 11:23:42;;;;;;;;;;;21.60;31.70;;;;;;482868;246;1989;-40
2022/02/16 11:25:45;;;;;;;;;;;21.60;31.70;;;;;;482977;246;1259;-40
2022/02/16 11:27:45;;;;;;;;;;;21.60;31.70;;;;;;483156;246;2292;-40
2022/02/16 11:29:46;;;;;;;;;;;21.60;31.70;;;;;;483221;246;1172;-40
2022/02/16 11:31:47;;;;;;;;;;;21.70;31.80;;;;;;483187;246;2176;-40
2022/02/16 11:33:49;;;;;;;;;;;21.60;31.70;;;;;;483052;246;1271;-40
2022/02/16 11:35:50;;;;;;;;;;;21.60;31.80;;;;;;483066;246;1312;-40
2022/02/16 11:37:51;;;;;;;;;;;21.50;31.80;;;;;;483645;246;1333;-40
2022/02/16 11:39:53;;;;;;;;;;;21.60;31.80;;;;;;483025;246;1319;-40
2022/02/16 11:41:55;;;;;;;;;;;21.60;31.80;;;;;;483016;246;1276;-40
2022/02/16 11:43:57;;;;;;;;;;;21.60;31.80;;;;;;483199;246;1110;-40
2022/02/16 11:46:00;;;;;;;;;;;21.50;31.90;;;;;;483186;246;2038;-40
2022/02/16 11:47:59;;;;;;;;;;;21.60;31.90;;;;;;483043;246;1317;-40
2022/02/16 11:50:01;;;;;;;;;;;21.60;31.90;;;;;;483280;246;1218;-40
2022/02/16 11:52:02;;;;;;;;;;;21.60;31.80;;;;;;483125;246;2125;-40
2022/02/16 11:54:03;;;;;;;;;;;21.60;31.90;;;;;;483153;246;1193;-40
2022/02/16 11:56:04;;;;;;;;;;;21.60;31.80;;;;;;483101;246;1323;-40